Estación Meteorológica Peña el Pijo (Robertgarden) [ 02/21/18 08:27:14 CET ]

Fecha Hora Presion(HPa) Temp (°C) Humedad % Rocio (°C) Viento ( m/s) Direccion Lluvia 1Hora(mm) Lluvia 24H(mm) LLuvia Total(mm)
2018-Feb-06 01:01:53 994.400 -3.3 81 -6.1       5.18 76.66
2018-Feb-06 02:03:09 994.000 -3.4 81 -6.2       5.18 76.66
2018-Feb-06 03:01:55 994.000 -4.6 81 -7.3       5.18 76.66
2018-Feb-06 04:01:51 993.800 -5.1 81 -7.8       5.18 76.66
2018-Feb-06 05:01:37 993.800 -5.6 82 -8.2       5.18 76.66
2018-Feb-06 06:01:52 994.000 -6.2 82 -8.8       5.18 76.66
2018-Feb-06 07:01:50 994.300 -6.1 83 -8.6       5.18 76.66
2018-Feb-06 08:01:47 994.200 -6.1 83 -8.6       5.18 76.66
2018-Feb-06 09:01:51 994.400 -5.7 83 -8.1       5.18 76.66
2018-Feb-06 10:01:49 994.800 0.6 84 -1.8       5.18 76.66
2018-Feb-06 11:01:49 995.000 4.3 69 -0.9       5.18 76.66
2018-Feb-06 12:01:51 995.300 3.8 64 -2.4       3.10 76.66
2018-Feb-06 13:01:55 995.200 3.0 66 -2.7       1.55 76.66
2018-Feb-06 14:01:47 995.000 2.1 70 -2.8 3.5 NNW   0.51 76.66
2018-Feb-06 15:02:00 994.500 2.2 72 -2.3 2.4 WNW     76.66
2018-Feb-06 16:02:05 994.500 1.8 72 -2.7         76.66
2018-Feb-06 17:01:59 994.900 1.1 73 -3.3 2.2 NNW     76.66
2018-Feb-06 18:01:47 995.300 0.6 74 -3.5         76.66
2018-Feb-06 19:01:54 996.200 -0.2 75 -4.1         76.66
2018-Feb-06 20:02:05 997.400 -0.6 76 -4.3         76.66
2018-Feb-06 21:01:47 997.800 -1.0 77 -4.5         76.66
2018-Feb-06 22:01:42 998.200 -0.7 77 -4.2         76.66
2018-Feb-06 23:01:46 998.200 -0.6 77 -4.1         76.66

Temperatura Máxima:    Temperatura Mínima:-6°
Presión Máxima:998.200 Hpa    Presión Mínima:993.800 Hpa


Volver